sensor_id;sensor_type;location;lat;lon;timestamp;pressure;altitude;pressure_sealevel;temperature;humidity
75157;BME280;63736;50.076;8.198;2022-10-31T00:00:20;99996.25;;;10.86;100.00
75157;BME280;63736;50.076;8.198;2022-10-31T00:02:46;99998.19;;;10.84;100.00
75157;BME280;63736;50.076;8.198;2022-10-31T00:05:11;99996.50;;;10.83;100.00
75157;BME280;63736;50.076;8.198;2022-10-31T00:07:36;99997.34;;;10.84;100.00
75157;BME280;63736;50.076;8.198;2022-10-31T00:10:02;99995.50;;;10.84;100.00
75157;BME280;63736;50.076;8.198;2022-10-31T00:12:27;100002.81;;;10.82;100.00
75157;BME280;63736;50.076;8.198;2022-10-31T00:14:53;100000.97;;;10.83;100.00
75157;BME280;63736;50.076;8.198;2022-10-31T00:17:18;100001.09;;;10.81;100.00
75157;BME280;63736;50.076;8.198;2022-10-31T00:19:43;99999.16;;;10.83;100.00
75157;BME280;63736;50.076;8.198;2022-10-31T00:22:09;100001.84;;;10.83;100.00
75157;BME280;63736;50.076;8.198;2022-10-31T00:24:34;100003.53;;;10.84;100.00
75157;BME280;63736;50.076;8.198;2022-10-31T00:27:00;100013.00;;;10.88;100.00
75157;BME280;63736;50.076;8.198;2022-10-31T00:29:25;100004.97;;;10.88;100.00
75157;BME280;63736;50.076;8.198;2022-10-31T00:31:52;100007.44;;;10.91;100.00
75157;BME280;63736;50.076;8.198;2022-10-31T00:34:17;100006.47;;;10.93;100.00
75157;BME280;63736;50.076;8.198;2022-10-31T00:36:42;100009.97;;;10.93;100.00
75157;BME280;63736;50.076;8.198;2022-10-31T00:39:08;100010.81;;;10.94;100.00
75157;BME280;63736;50.076;8.198;2022-10-31T00:41:33;100015.31;;;10.93;100.00
75157;BME280;63736;50.076;8.198;2022-10-31T00:43:58;100016.06;;;10.95;100.00
75157;BME280;63736;50.076;8.198;2022-10-31T00:46:24;100012.53;;;10.95;100.00
75157;BME280;63736;50.076;8.198;2022-10-31T00:48:49;100009.16;;;10.93;100.00
75157;BME280;63736;50.076;8.198;2022-10-31T00:51:14;100013.63;;;10.92;100.00
75157;BME280;63736;50.076;8.198;2022-10-31T00:53:39;100012.66;;;10.93;100.00
75157;BME280;63736;50.076;8.198;2022-10-31T00:56:05;100010.94;;;10.92;100.00
75157;BME280;63736;50.076;8.198;2022-10-31T00:58:30;100008.41;;;10.90;100.00
75157;BME280;63736;50.076;8.198;2022-10-31T01:00:56;100010.22;;;10.90;100.00
75157;BME280;63736;50.076;8.198;2022-10-31T01:03:26;100012.91;;;10.90;100.00
75157;BME280;63736;50.076;8.198;2022-10-31T01:05:59;100007.56;;;10.90;100.00
75157;BME280;63736;50.076;8.198;2022-10-31T01:08:25;100014.97;;;10.86;100.00
75157;BME280;63736;50.076;8.198;2022-10-31T01:11:02;100011.19;;;10.89;100.00
75157;BME280;63736;50.076;8.198;2022-10-31T01:13:28;100010.44;;;10.87;100.00
75157;BME280;63736;50.076;8.198;2022-10-31T01:15:58;99996.88;;;10.90;100.00
75157;BME280;63736;50.076;8.198;2022-10-31T01:18:24;99997.59;;;10.92;100.00
75157;BME280;63736;50.076;8.198;2022-10-31T01:21:07;99992.50;;;11.00;100.00
75157;BME280;63736;50.076;8.198;2022-10-31T01:23:33;99989.59;;;11.03;100.00
75157;BME280;63736;50.076;8.198;2022-10-31T01:26:07;99983.75;;;11.10;100.00
75157;BME280;63736;50.076;8.198;2022-10-31T01:28:33;99987.75;;;11.15;100.00
75157;BME280;63736;50.076;8.198;2022-10-31T01:31:07;99989.09;;;11.21;100.00
75157;BME280;63736;50.076;8.198;2022-10-31T01:33:33;99995.44;;;11.20;100.00
75157;BME280;63736;50.076;8.198;2022-10-31T01:35:58;99991.06;;;11.19;100.00
75157;BME280;63736;50.076;8.198;2022-10-31T01:38:24;99990.44;;;11.15;100.00
75157;BME280;63736;50.076;8.198;2022-10-31T01:40:50;99997.84;;;11.12;100.00
75157;BME280;63736;50.076;8.198;2022-10-31T01:43:17;99995.41;;;11.08;100.00
75157;BME280;63736;50.076;8.198;2022-10-31T01:45:46;100000.16;;;11.05;100.00
75157;BME280;63736;50.076;8.198;2022-10-31T01:48:16;99998.69;;;11.01;100.00
75157;BME280;63736;50.076;8.198;2022-10-31T01:50:45;99996.38;;;10.96;100.00
75157;BME280;63736;50.076;8.198;2022-10-31T01:53:14;100001.22;;;10.91;100.00
75157;BME280;63736;50.076;8.198;2022-10-31T01:55:43;100004.00;;;10.89;100.00
75157;BME280;63736;50.076;8.198;2022-10-31T01:58:12;100002.44;;;10.87;100.00
75157;BME280;63736;50.076;8.198;2022-10-31T02:00:39;100005.34;;;10.84;100.00
75157;BME280;63736;50.076;8.198;2022-10-31T02:03:08;99997.34;;;10.84;100.00
75157;BME280;63736;50.076;8.198;2022-10-31T02:05:33;99990.78;;;10.88;100.00
75157;BME280;63736;50.076;8.198;2022-10-31T02:10:40;100000.88;;;10.96;100.00
75157;BME280;63736;50.076;8.198;2022-10-31T02:13:08;100007.94;;;10.97;100.00
75157;BME280;63736;50.076;8.198;2022-10-31T02:15:35;99996.38;;;10.96;100.00
75157;BME280;63736;50.076;8.198;2022-10-31T02:18:02;100005.38;;;10.95;100.00
75157;BME280;63736;50.076;8.198;2022-10-31T02:20:32;99987.38;;;10.97;100.00
75157;BME280;63736;50.076;8.198;2022-10-31T02:23:22;99993.59;;;10.98;100.00
75157;BME280;63736;50.076;8.198;2022-10-31T02:29:23;99998.06;;;10.97;100.00
75157;BME280;63736;50.076;8.198;2022-10-31T02:37:26;99995.53;;;11.07;100.00
75157;BME280;63736;50.076;8.198;2022-10-31T02:40:25;99990.06;;;11.08;100.00
75157;BME280;63736;50.076;8.198;2022-10-31T02:42:59;99990.19;;;11.07;100.00
75157;BME280;63736;50.076;8.198;2022-10-31T02:45:45;99988.50;;;11.06;100.00
75157;BME280;63736;50.076;8.198;2022-10-31T02:48:18;99977.31;;;11.01;100.00
75157;BME280;63736;50.076;8.198;2022-10-31T02:50:52;99983.88;;;10.97;100.00
75157;BME280;63736;50.076;8.198;2022-10-31T02:53:20;99977.06;;;10.93;100.00
75157;BME280;63736;50.076;8.198;2022-10-31T02:58:24;99977.28;;;10.89;100.00
75157;BME280;63736;50.076;8.198;2022-10-31T03:12:26;99976.66;;;10.86;100.00
75157;BME280;63736;50.076;8.198;2022-10-31T03:15:08;99980.44;;;10.95;100.00
75157;BME280;63736;50.076;8.198;2022-10-31T03:17:42;99977.16;;;10.91;100.00
75157;BME280;63736;50.076;8.198;2022-10-31T03:20:11;99974.75;;;10.88;100.00
75157;BME280;63736;50.076;8.198;2022-10-31T03:22:37;99976.56;;;10.87;100.00
75157;BME280;63736;50.076;8.198;2022-10-31T03:25:06;99969.66;;;10.85;100.00
75157;BME280;63736;50.076;8.198;2022-10-31T03:27:33;99973.53;;;10.81;100.00
75157;BME280;63736;50.076;8.198;2022-10-31T03:30:02;99963.19;;;10.76;100.00
75157;BME280;63736;50.076;8.198;2022-10-31T03:32:32;99961.59;;;10.73;100.00
75157;BME280;63736;50.076;8.198;2022-10-31T03:35:01;99952.97;;;10.70;100.00
75157;BME280;63736;50.076;8.198;2022-10-31T03:37:31;99954.94;;;10.68;100.00
75157;BME280;63736;50.076;8.198;2022-10-31T03:39:58;99954.31;;;10.64;100.00
75157;BME280;63736;50.076;8.198;2022-10-31T03:42:29;99962.44;;;10.63;100.00
75157;BME280;63736;50.076;8.198;2022-10-31T03:45:02;99960.63;;;10.63;100.00
75157;BME280;63736;50.076;8.198;2022-10-31T03:47:29;99960.00;;;10.60;100.00
75157;BME280;63736;50.076;8.198;2022-10-31T03:49:55;99959.16;;;10.59;100.00
75157;BME280;63736;50.076;8.198;2022-10-31T03:57:45;99958.91;;;10.62;100.00
75157;BME280;63736;50.076;8.198;2022-10-31T04:00:14;99952.94;;;10.58;100.00
75157;BME280;63736;50.076;8.198;2022-10-31T04:02:45;99958.41;;;10.57;100.00
75157;BME280;63736;50.076;8.198;2022-10-31T04:05:12;99957.56;;;10.56;100.00
75157;BME280;63736;50.076;8.198;2022-10-31T04:07:44;99963.88;;;10.55;100.00
75157;BME280;63736;50.076;8.198;2022-10-31T04:10:13;99964.84;;;10.54;100.00
75157;BME280;63736;50.076;8.198;2022-10-31T04:12:42;99965.72;;;10.55;100.00
75157;BME280;63736;50.076;8.198;2022-10-31T04:15:09;99965.72;;;10.55;100.00
75157;BME280;63736;50.076;8.198;2022-10-31T04:17:39;99966.56;;;10.55;100.00
75157;BME280;63736;50.076;8.198;2022-10-31T04:20:05;99970.19;;;10.54;100.00
75157;BME280;63736;50.076;8.198;2022-10-31T04:22:31;99970.19;;;10.54;100.00
75157;BME280;63736;50.076;8.198;2022-10-31T04:24:56;99969.34;;;10.54;100.00
75157;BME280;63736;50.076;8.198;2022-10-31T04:27:21;99975.66;;;10.53;100.00
75157;BME280;63736;50.076;8.198;2022-10-31T04:29:47;99973.94;;;10.52;100.00
75157;BME280;63736;50.076;8.198;2022-10-31T04:32:12;99973.22;;;10.50;100.00
75157;BME280;63736;50.076;8.198;2022-10-31T04:34:37;99983.16;;;10.48;100.00
75157;BME280;63736;50.076;8.198;2022-10-31T04:37:02;99972.84;;;10.43;100.00
75157;BME280;63736;50.076;8.198;2022-10-31T04:39:28;99978.28;;;10.41;100.00
75157;BME280;63736;50.076;8.198;2022-10-31T04:41:53;99971.34;;;10.39;100.00
75157;BME280;63736;50.076;8.198;2022-10-31T04:44:18;99973.44;;;10.35;100.00
75157;BME280;63736;50.076;8.198;2022-10-31T04:46:44;99978.66;;;10.37;100.00
75157;BME280;63736;50.076;8.198;2022-10-31T04:49:09;99979.63;;;10.36;100.00
75157;BME280;63736;50.076;8.198;2022-10-31T04:51:34;99979.69;;;10.34;100.00
75157;BME280;63736;50.076;8.198;2022-10-31T04:53:59;99979.63;;;10.36;100.00
75157;BME280;63736;50.076;8.198;2022-10-31T04:56:25;99977.69;;;10.38;100.00
75157;BME280;63736;50.076;8.198;2022-10-31T04:58:51;99982.16;;;10.37;100.00
75157;BME280;63736;50.076;8.198;2022-10-31T05:01:16;99980.53;;;10.35;100.00
75157;BME280;63736;50.076;8.198;2022-10-31T05:03:41;99975.19;;;10.35;100.00
75157;BME280;63736;50.076;8.198;2022-10-31T05:06:07;99973.50;;;10.34;100.00
75157;BME280;63736;50.076;8.198;2022-10-31T05:08:32;99972.66;;;10.33;100.00
75157;BME280;63736;50.076;8.198;2022-10-31T05:11:02;99965.28;;;10.37;100.00
75157;BME280;63736;50.076;8.198;2022-10-31T05:13:27;99967.97;;;10.37;100.00
75157;BME280;63736;50.076;8.198;2022-10-31T05:15:53;99967.00;;;10.38;100.00
75157;BME280;63736;50.076;8.198;2022-10-31T05:18:18;99975.72;;;10.40;100.00
75157;BME280;63736;50.076;8.198;2022-10-31T05:20:43;99968.47;;;10.42;100.00
75157;BME280;63736;50.076;8.198;2022-10-31T05:23:09;99970.28;;;10.41;100.00
75157;BME280;63736;50.076;8.198;2022-10-31T05:25:34;99963.97;;;10.43;100.00
75157;BME280;63736;50.076;8.198;2022-10-31T05:27:59;99960.47;;;10.42;100.00
75157;BME280;63736;50.076;8.198;2022-10-31T05:30:28;99964.47;;;10.48;100.00
75157;BME280;63736;50.076;8.198;2022-10-31T05:32:53;99967.00;;;10.49;100.00
75157;BME280;63736;50.076;8.198;2022-10-31T05:35:27;99960.59;;;10.52;100.00
75157;BME280;63736;50.076;8.198;2022-10-31T05:37:53;99958.16;;;10.49;100.00
75157;BME280;63736;50.076;8.198;2022-10-31T05:40:19;99971.50;;;10.49;100.00
75157;BME280;63736;50.076;8.198;2022-10-31T05:42:45;99954.75;;;10.47;100.00
75157;BME280;63736;50.076;8.198;2022-10-31T05:45:16;99954.66;;;10.48;100.00
75157;BME280;63736;50.076;8.198;2022-10-31T05:47:42;99957.41;;;10.47;100.00
75157;BME280;63736;50.076;8.198;2022-10-31T05:50:08;99953.91;;;10.46;100.00
75157;BME280;63736;50.076;8.198;2022-10-31T05:52:34;99955.84;;;10.44;100.00
75157;BME280;63736;50.076;8.198;2022-10-31T05:54:59;99958.63;;;10.43;100.00
75157;BME280;63736;50.076;8.198;2022-10-31T05:57:25;99959.59;;;10.41;100.00
75157;BME280;63736;50.076;8.198;2022-10-31T05:59:50;99961.53;;;10.39;100.00
75157;BME280;63736;50.076;8.198;2022-10-31T06:02:19;99966.88;;;10.39;100.00
75157;BME280;63736;50.076;8.198;2022-10-31T06:04:45;99969.69;;;10.38;100.00
75157;BME280;63736;50.076;8.198;2022-10-31T06:07:10;99954.63;;;10.37;100.00
75157;BME280;63736;50.076;8.198;2022-10-31T06:09:35;99957.16;;;10.38;100.00
75157;BME280;63736;50.076;8.198;2022-10-31T06:12:00;99958.75;;;10.41;100.00
75157;BME280;63736;50.076;8.198;2022-10-31T06:14:26;99952.44;;;10.42;100.00
75157;BME280;63736;50.076;8.198;2022-10-31T06:16:51;99954.75;;;10.47;100.00
75157;BME280;63736;50.076;8.198;2022-10-31T06:19:16;99956.13;;;10.52;100.00
75157;BME280;63736;50.076;8.198;2022-10-31T06:21:41;99951.16;;;10.59;100.00
75157;BME280;63736;50.076;8.198;2022-10-31T06:24:07;99954.94;;;10.68;100.00
75157;BME280;63736;50.076;8.198;2022-10-31T06:26:32;99950.78;;;10.75;100.00
75157;BME280;63736;50.076;8.198;2022-10-31T06:28:57;99951.06;;;10.83;100.00
75157;BME280;63736;50.076;8.198;2022-10-31T06:31:23;99953.00;;;10.93;100.00
75157;BME280;63736;50.076;8.198;2022-10-31T06:33:48;99961.00;;;11.04;100.00
75157;BME280;63736;50.076;8.198;2022-10-31T06:36:13;99954.59;;;11.18;100.00
75157;BME280;63736;50.076;8.198;2022-10-31T06:38:38;99954.44;;;11.31;100.00
75157;BME280;63736;50.076;8.198;2022-10-31T06:41:05;99957.59;;;11.47;100.00
75157;BME280;63736;50.076;8.198;2022-10-31T06:43:30;99952.13;;;11.60;100.00
75157;BME280;63736;50.076;8.198;2022-10-31T06:45:56;99953.50;;;11.76;100.00
75157;BME280;63736;50.076;8.198;2022-10-31T06:48:21;99957.50;;;11.93;100.00
75157;BME280;63736;50.076;8.198;2022-10-31T06:50:47;99957.09;;;12.09;100.00
75157;BME280;63736;50.076;8.198;2022-10-31T06:53:12;99961.50;;;12.31;100.00
75157;BME280;63736;50.076;8.198;2022-10-31T06:55:39;99956.28;;;12.50;100.00
75157;BME280;63736;50.076;8.198;2022-10-31T06:58:05;99954.56;;;12.70;100.00
75157;BME280;63736;50.076;8.198;2022-10-31T07:00:30;99958.78;;;12.94;100.00
75157;BME280;63736;50.076;8.198;2022-10-31T07:03:04;99959.88;;;13.22;100.00
75157;BME280;63736;50.076;8.198;2022-10-31T07:05:30;99959.00;;;13.43;100.00
75157;BME280;63736;50.076;8.198;2022-10-31T07:08:00;99960.06;;;13.71;100.00
75157;BME280;63736;50.076;8.198;2022-10-31T07:10:27;99952.63;;;14.04;100.00
75157;BME280;63736;50.076;8.198;2022-10-31T07:12:58;99946.31;;;14.63;100.00
75157;BME280;63736;50.076;8.198;2022-10-31T07:15:24;99957.53;;;15.43;100.00
75157;BME280;63736;50.076;8.198;2022-10-31T07:17:50;99947.94;;;16.05;100.00
75157;BME280;63736;50.076;8.198;2022-10-31T07:20:15;99946.72;;;16.61;100.00
75157;BME280;63736;50.076;8.198;2022-10-31T07:22:41;99965.50;;;17.24;100.00
75157;BME280;63736;50.076;8.198;2022-10-31T07:25:06;99960.94;;;17.67;100.00
75157;BME280;63736;50.076;8.198;2022-10-31T07:27:42;99969.44;;;17.89;100.00
75157;BME280;63736;50.076;8.198;2022-10-31T07:30:09;99971.91;;;18.25;100.00
75157;BME280;63736;50.076;8.198;2022-10-31T07:35:06;99968.81;;;19.50;100.00
75157;BME280;63736;50.076;8.198;2022-10-31T07:37:31;99961.13;;;20.02;99.25
75157;BME280;63736;50.076;8.198;2022-10-31T07:39:56;99958.94;;;20.58;94.08
75157;BME280;63736;50.076;8.198;2022-10-31T07:42:22;99960.44;;;20.84;91.04
75157;BME280;63736;50.076;8.198;2022-10-31T07:44:47;99959.72;;;21.20;88.77
75157;BME280;63736;50.076;8.198;2022-10-31T07:47:12;99957.91;;;21.42;87.40
75157;BME280;63736;50.076;8.198;2022-10-31T07:49:38;99966.59;;;21.83;84.12
75157;BME280;63736;50.076;8.198;2022-10-31T07:52:03;99964.16;;;22.31;80.93
75157;BME280;63736;50.076;8.198;2022-10-31T07:54:28;99972.00;;;22.19;80.72
75157;BME280;63736;50.076;8.198;2022-10-31T07:56:54;99973.78;;;21.90;83.80
75157;BME280;63736;50.076;8.198;2022-10-31T07:59:19;99970.91;;;21.77;85.25
75157;BME280;63736;50.076;8.198;2022-10-31T08:01:44;99975.09;;;21.94;85.11
75157;BME280;63736;50.076;8.198;2022-10-31T08:04:09;99971.69;;;22.29;82.93
75157;BME280;63736;50.076;8.198;2022-10-31T08:06:35;99971.25;;;22.75;79.55
75157;BME280;63736;50.076;8.198;2022-10-31T08:09:00;99971.50;;;23.44;75.31
75157;BME280;63736;50.076;8.198;2022-10-31T08:11:25;99965.88;;;24.21;70.42
75157;BME280;63736;50.076;8.198;2022-10-31T08:13:50;99973.06;;;25.02;64.07
75157;BME280;63736;50.076;8.198;2022-10-31T08:16:16;99962.88;;;25.43;62.07
75157;BME280;63736;50.076;8.198;2022-10-31T08:18:41;99972.25;;;25.61;59.99
75157;BME280;63736;50.076;8.198;2022-10-31T08:21:06;99967.47;;;25.56;59.46
75157;BME280;63736;50.076;8.198;2022-10-31T08:23:31;99972.06;;;25.55;59.12
75157;BME280;63736;50.076;8.198;2022-10-31T08:25:57;99975.19;;;25.66;58.42
75157;BME280;63736;50.076;8.198;2022-10-31T08:28:22;99965.97;;;25.60;58.82
75157;BME280;63736;50.076;8.198;2022-10-31T08:30:47;99973.53;;;25.58;56.55
75157;BME280;63736;50.076;8.198;2022-10-31T08:33:15;99969.41;;;25.42;57.15
75157;BME280;63736;50.076;8.198;2022-10-31T08:35:42;99960.88;;;25.05;57.51
75157;BME280;63736;50.076;8.198;2022-10-31T08:38:09;99962.56;;;24.46;59.57
75157;BME280;63736;50.076;8.198;2022-10-31T08:40:35;99955.59;;;24.16;61.44
75157;BME280;63736;50.076;8.198;2022-10-31T08:43:03;99957.50;;;24.22;61.80
75157;BME280;63736;50.076;8.198;2022-10-31T08:45:30;99947.44;;;24.50;61.20
75157;BME280;63736;50.076;8.198;2022-10-31T08:47:58;99947.84;;;24.73;59.91
75157;BME280;63736;50.076;8.198;2022-10-31T08:50:23;99946.59;;;24.69;59.71
75157;BME280;63736;50.076;8.198;2022-10-31T08:52:49;99947.00;;;24.39;60.24
75157;BME280;63736;50.076;8.198;2022-10-31T08:55:14;99942.56;;;23.98;62.50
75157;BME280;63736;50.076;8.198;2022-10-31T08:57:39;99950.38;;;23.53;64.48
75157;BME280;63736;50.076;8.198;2022-10-31T09:00:05;99939.44;;;23.11;66.51
75157;BME280;63736;50.076;8.198;2022-10-31T09:02:31;99940.47;;;22.75;68.00
75157;BME280;63736;50.076;8.198;2022-10-31T09:04:56;99940.59;;;22.38;69.70
75157;BME280;63736;50.076;8.198;2022-10-31T09:07:21;99944.25;;;22.09;71.63
75157;BME280;63736;50.076;8.198;2022-10-31T09:09:47;99942.59;;;21.71;73.14
75157;BME280;63736;50.076;8.198;2022-10-31T09:12:12;99949.19;;;21.17;74.83
75157;BME280;63736;50.076;8.198;2022-10-31T09:14:37;99932.72;;;20.74;77.80
75157;BME280;63736;50.076;8.198;2022-10-31T09:17:02;99938.91;;;20.44;80.48
75157;BME280;63736;50.076;8.198;2022-10-31T09:19:28;99937.06;;;20.22;82.60
75157;BME280;63736;50.076;8.198;2022-10-31T09:21:54;99937.16;;;20.05;84.76
75157;BME280;63736;50.076;8.198;2022-10-31T09:24:19;99934.59;;;19.89;86.41
75157;BME280;63736;50.076;8.198;2022-10-31T09:26:44;99939.38;;;19.78;88.30
75157;BME280;63736;50.076;8.198;2022-10-31T09:29:09;99940.78;;;19.66;88.81
75157;BME280;63736;50.076;8.198;2022-10-31T09:31:35;99931.88;;;19.57;89.50
75157;BME280;63736;50.076;8.198;2022-10-31T09:34:00;99932.75;;;19.50;90.41
75157;BME280;63736;50.076;8.198;2022-10-31T09:36:26;99937.00;;;19.44;91.06
75157;BME280;63736;50.076;8.198;2022-10-31T09:38:51;99937.88;;;19.36;91.51
75157;BME280;63736;50.076;8.198;2022-10-31T09:41:31;99935.41;;;19.26;91.06
75157;BME280;63736;50.076;8.198;2022-10-31T09:44:13;99933.25;;;19.13;91.80
75157;BME280;63736;50.076;8.198;2022-10-31T09:49:49;99929.56;;;18.98;93.85
75157;BME280;63736;50.076;8.198;2022-10-31T09:52:29;99933.81;;;18.92;94.94
75157;BME280;63736;50.076;8.198;2022-10-31T09:55:04;99924.84;;;18.92;96.27
75157;BME280;63736;50.076;8.198;2022-10-31T09:57:33;99920.75;;;18.96;96.25
75157;BME280;63736;50.076;8.198;2022-10-31T10:00:00;99925.34;;;18.95;96.13
75157;BME280;63736;50.076;8.198;2022-10-31T10:02:36;99919.91;;;19.04;96.59
75157;BME280;63736;50.076;8.198;2022-10-31T10:05:14;99923.25;;;19.14;96.19
75157;BME280;63736;50.076;8.198;2022-10-31T10:08:08;99916.63;;;19.17;95.93
75157;BME280;63736;50.076;8.198;2022-10-31T10:11:46;99908.34;;;19.18;95.87
75157;BME280;63736;50.076;8.198;2022-10-31T10:13:57;99907.00;;;19.22;95.77
75157;BME280;63736;50.076;8.198;2022-10-31T10:16:38;99906.13;;;19.22;95.99
75157;BME280;63736;50.076;8.198;2022-10-31T10:19:24;99912.88;;;19.26;95.72
75157;BME280;63736;50.076;8.198;2022-10-31T10:22:12;99912.34;;;19.30;96.27
75157;BME280;63736;50.076;8.198;2022-10-31T10:25:16;99902.03;;;19.34;95.57
75157;BME280;63736;50.076;8.198;2022-10-31T10:28:02;99900.47;;;19.40;95.70
75157;BME280;63736;50.076;8.198;2022-10-31T10:30:53;99908.06;;;19.44;95.36
75157;BME280;63736;50.076;8.198;2022-10-31T10:33:40;99913.13;;;19.47;94.71
75157;BME280;63736;50.076;8.198;2022-10-31T10:36:27;99907.50;;;19.49;94.58
75157;BME280;63736;50.076;8.198;2022-10-31T10:39:04;99905.28;;;19.53;94.22
75157;BME280;63736;50.076;8.198;2022-10-31T10:41:32;99902.72;;;19.59;94.26
75157;BME280;63736;50.076;8.198;2022-10-31T10:43:58;99890.19;;;19.58;93.85
75157;BME280;63736;50.076;8.198;2022-10-31T10:46:47;99885.75;;;19.65;93.67
75157;BME280;63736;50.076;8.198;2022-10-31T10:49:52;99885.69;;;19.74;93.25
75157;BME280;63736;50.076;8.198;2022-10-31T10:52:30;99881.91;;;19.83;93.44
75157;BME280;63736;50.076;8.198;2022-10-31T10:55:10;99887.59;;;19.96;92.41
75157;BME280;63736;50.076;8.198;2022-10-31T11:00:32;99877.28;;;20.15;90.62
75157;BME280;63736;50.076;8.198;2022-10-31T11:02:59;99877.56;;;20.20;89.71
75157;BME280;63736;50.076;8.198;2022-10-31T11:05:57;99868.50;;;20.28;89.31
75157;BME280;63736;50.076;8.198;2022-10-31T11:13:26;99850.16;;;20.30;87.42
75157;BME280;63736;50.076;8.198;2022-10-31T11:16:10;99846.72;;;20.36;86.38
75157;BME280;63736;50.076;8.198;2022-10-31T11:18:40;99854.66;;;20.38;85.98
75157;BME280;63736;50.076;8.198;2022-10-31T11:21:29;99847.94;;;20.34;85.71
75157;BME280;63736;50.076;8.198;2022-10-31T11:26:29;99832.47;;;20.19;83.08
75157;BME280;63736;50.076;8.198;2022-10-31T11:28:58;99820.50;;;20.13;82.99
75157;BME280;63736;50.076;8.198;2022-10-31T11:31:24;99823.47;;;20.04;83.58
75157;BME280;63736;50.076;8.198;2022-10-31T11:33:57;99820.16;;;19.93;83.85
75157;BME280;63736;50.076;8.198;2022-10-31T11:36:26;99817.16;;;19.88;84.61
75157;BME280;63736;50.076;8.198;2022-10-31T11:38:53;99826.34;;;19.87;85.60
75157;BME280;63736;50.076;8.198;2022-10-31T11:41:36;99814.41;;;19.96;85.41
75157;BME280;63736;50.076;8.198;2022-10-31T11:44:25;99821.97;;;20.01;85.11
75157;BME280;63736;50.076;8.198;2022-10-31T11:46:55;99813.28;;;20.06;85.94
75157;BME280;63736;50.076;8.198;2022-10-31T11:49:38;99821.00;;;20.17;86.17
75157;BME280;63736;50.076;8.198;2022-10-31T11:52:06;99822.75;;;20.25;85.52
75157;BME280;63736;50.076;8.198;2022-10-31T11:54:49;99820.63;;;20.35;85.96
75157;BME280;63736;50.076;8.198;2022-10-31T11:57:31;99820.63;;;20.50;85.13
75157;BME280;63736;50.076;8.198;2022-10-31T11:59:59;99824.47;;;20.56;84.62
75157;BME280;63736;50.076;8.198;2022-10-31T12:02:25;99817.47;;;20.61;84.36
75157;BME280;63736;50.076;8.198;2022-10-31T12:04:58;99817.56;;;20.68;84.52
75157;BME280;63736;50.076;8.198;2022-10-31T12:07:25;99806.16;;;20.73;84.87
75157;BME280;63736;50.076;8.198;2022-10-31T12:09:50;99795.41;;;20.79;84.31
75157;BME280;63736;50.076;8.198;2022-10-31T12:15:03;99771.88;;;20.87;83.04
75157;BME280;63736;50.076;8.198;2022-10-31T12:29:14;99765.50;;;20.64;81.64
75157;BME280;63736;50.076;8.198;2022-10-31T12:34:49;99752.78;;;20.65;81.58
75157;BME280;63736;50.076;8.198;2022-10-31T12:37:41;99753.25;;;20.69;82.38
75157;BME280;63736;50.076;8.198;2022-10-31T12:40:35;99758.16;;;20.73;83.26
75157;BME280;63736;50.076;8.198;2022-10-31T12:43:36;99736.91;;;20.77;81.91
75157;BME280;63736;50.076;8.198;2022-10-31T12:46:13;99734.53;;;20.74;79.12
75157;BME280;63736;50.076;8.198;2022-10-31T12:49:05;99733.91;;;20.72;78.77
75157;BME280;63736;50.076;8.198;2022-10-31T12:51:50;99723.50;;;20.75;79.09
75157;BME280;63736;50.076;8.198;2022-10-31T12:57:20;99721.63;;;20.76;77.09
75157;BME280;63736;50.076;8.198;2022-10-31T12:59:57;99721.69;;;20.68;78.28
75157;BME280;63736;50.076;8.198;2022-10-31T13:05:00;99707.69;;;20.49;79.91
75157;BME280;63736;50.076;8.198;2022-10-31T13:07:54;99702.94;;;20.36;79.12
75157;BME280;63736;50.076;8.198;2022-10-31T13:10:26;99691.25;;;20.21;79.15
75157;BME280;63736;50.076;8.198;2022-10-31T13:13:00;99685.25;;;20.10;79.67
75157;BME280;63736;50.076;8.198;2022-10-31T13:15:31;99687.69;;;20.05;80.73
75157;BME280;63736;50.076;8.198;2022-10-31T13:18:01;99679.13;;;20.02;81.52
75157;BME280;63736;50.076;8.198;2022-10-31T13:20:33;99668.00;;;19.96;81.70
75157;BME280;63736;50.076;8.198;2022-10-31T13:23:29;99661.63;;;19.89;81.03
75157;BME280;63736;50.076;8.198;2022-10-31T13:25:56;99655.06;;;19.84;81.82
75157;BME280;63736;50.076;8.198;2022-10-31T13:28:28;99662.69;;;19.80;82.84
75157;BME280;63736;50.076;8.198;2022-10-31T13:30:56;99660.69;;;19.82;84.17
75157;BME280;63736;50.076;8.198;2022-10-31T13:33:27;99660.78;;;19.89;84.77
75157;BME280;63736;50.076;8.198;2022-10-31T13:39:23;99666.78;;;19.99;85.66
75157;BME280;63736;50.076;8.198;2022-10-31T13:42:00;99671.16;;;20.00;86.70
75157;BME280;63736;50.076;8.198;2022-10-31T13:44:29;99662.56;;;19.96;86.59
75157;BME280;63736;50.076;8.198;2022-10-31T13:46:56;99668.72;;;19.90;87.47
75157;BME280;63736;50.076;8.198;2022-10-31T13:49:37;99660.31;;;19.85;88.52
75157;BME280;63736;50.076;8.198;2022-10-31T13:54:37;99643.63;;;19.73;89.21
75157;BME280;63736;50.076;8.198;2022-10-31T13:57:07;99631.66;;;19.68;89.65
75157;BME280;63736;50.076;8.198;2022-10-31T13:59:38;99649.69;;;19.60;89.92
75157;BME280;63736;50.076;8.198;2022-10-31T14:02:17;99649.69;;;19.60;90.40
75157;BME280;63736;50.076;8.198;2022-10-31T14:04:52;99648.38;;;19.56;91.01
75157;BME280;63736;50.076;8.198;2022-10-31T14:07:21;99655.38;;;19.51;92.07
75157;BME280;63736;50.076;8.198;2022-10-31T14:12:34;99665.06;;;19.45;93.26
75157;BME280;63736;50.076;8.198;2022-10-31T14:17:56;99644.50;;;19.36;94.27
75157;BME280;63736;50.076;8.198;2022-10-31T14:22:56;99653.56;;;19.28;95.22
75157;BME280;63736;50.076;8.198;2022-10-31T14:25:34;99653.84;;;19.33;95.59
75157;BME280;63736;50.076;8.198;2022-10-31T14:28:03;99647.03;;;19.37;95.75
75157;BME280;63736;50.076;8.198;2022-10-31T14:30:29;99643.88;;;19.48;95.28